Time,TemperatureF,DewpointF,PressureIn,WindDirection,WindDirectionDegrees,WindSpeedMPH,WindSpeedGustMPH,Humidity,HourlyPrecipIn,Conditions,Clouds,dailyrainin,SoftwareType,DateUTC
2013-01-15 00:02:00,14.7,3.4,30.47,North,-999,-999.0,-999.0,60,0.00,,,0.00,meteohub,2013-01-15 06:02:00,
2013-01-15 00:07:00,14.5,3.2,30.47,North,-999,-999.0,-999.0,60,0.00,,,0.00,meteohub,2013-01-15 06:07:00,
2013-01-15 00:12:00,14.5,3.6,30.47,North,-999,-999.0,-999.0,61,0.00,,,0.00,meteohub,2013-01-15 06:12:00,
2013-01-15 00:17:00,14.5,3.6,30.47,North,-999,-999.0,-999.0,61,0.00,,,0.00,meteohub,2013-01-15 06:17:00,
2013-01-15 00:22:00,14.5,3.6,30.47,North,-999,-999.0,-999.0,61,0.00,,,0.00,meteohub,2013-01-15 06:22:00,
2013-01-15 00:27:00,14.5,3.6,30.47,North,-999,-999.0,-999.0,61,0.00,,,0.00,meteohub,2013-01-15 06:27:00,
2013-01-15 00:32:00,14.7,3.7,30.47,North,-999,-999.0,-999.0,61,0.00,,,0.00,meteohub,2013-01-15 06:32:00,
2013-01-15 00:37:00,14.7,3.7,30.46,North,-999,-999.0,-999.0,61,0.00,,,0.00,meteohub,2013-01-15 06:37:00,
2013-01-15 00:42:00,14.5,3.6,30.46,North,-999,-999.0,-999.0,61,0.00,,,0.00,meteohub,2013-01-15 06:42:00,
2013-01-15 00:47:00,14.5,3.6,30.46,North,-999,-999.0,-999.0,61,0.00,,,0.00,meteohub,2013-01-15 06:47:00,
2013-01-15 00:52:00,14.4,3.4,30.47,North,-999,-999.0,-999.0,61,0.00,,,0.00,meteohub,2013-01-15 06:52:00,
2013-01-15 00:57:00,14.4,3.4,30.47,North,-999,-999.0,-999.0,61,0.00,,,0.00,meteohub,2013-01-15 06:57:00,
2013-01-15 01:02:00,14.2,3.2,30.46,North,-999,-999.0,-999.0,61,0.00,,,0.00,meteohub,2013-01-15 07:02:00,
2013-01-15 01:07:00,14.2,3.2,30.46,North,-999,-999.0,-999.0,61,0.00,,,0.00,meteohub,2013-01-15 07:07:00,
2013-01-15 01:12:00,14.0,3.0,30.46,North,-999,-999.0,-999.0,61,0.00,,,0.00,meteohub,2013-01-15 07:12:00,
2013-01-15 01:17:00,14.0,3.0,30.47,North,-999,-999.0,-999.0,61,0.00,,,0.00,meteohub,2013-01-15 07:17:00,
2013-01-15 01:22:00,14.0,3.0,30.46,North,-999,-999.0,-999.0,61,0.00,,,0.00,meteohub,2013-01-15 07:22:00,
2013-01-15 01:27:00,13.8,3.6,30.47,North,-999,-999.0,-999.0,63,0.00,,,0.00,meteohub,2013-01-15 07:27:00,
2013-01-15 01:32:00,13.6,3.4,30.47,North,-999,-999.0,-999.0,63,0.00,,,0.00,meteohub,2013-01-15 07:32:00,
2013-01-15 01:37:00,13.3,3.0,30.47,North,-999,-999.0,-999.0,63,0.00,,,0.00,meteohub,2013-01-15 07:37:00,
2013-01-15 01:42:00,13.1,2.5,30.48,North,-999,-999.0,-999.0,62,0.00,,,0.00,meteohub,2013-01-15 07:42:00,
2013-01-15 01:47:00,13.1,2.5,30.48,North,-999,-999.0,-999.0,62,0.00,,,0.00,meteohub,2013-01-15 07:47:00,
2013-01-15 01:52:00,13.1,2.5,30.48,North,-999,-999.0,-999.0,62,0.00,,,0.00,meteohub,2013-01-15 07:52:00,
2013-01-15 01:57:00,13.1,2.8,30.48,North,-999,-999.0,-999.0,63,0.00,,,0.00,meteohub,2013-01-15 07:57:00,
2013-01-15 02:02:00,12.7,2.5,30.48,North,-999,-999.0,-999.0,63,0.00,,,0.00,meteohub,2013-01-15 08:02:00,
2013-01-15 02:07:00,12.7,2.5,30.48,North,-999,-999.0,-999.0,63,0.00,,,0.00,meteohub,2013-01-15 08:07:00,
2013-01-15 02:12:00,12.7,2.5,30.48,North,-999,-999.0,-999.0,63,0.00,,,0.00,meteohub,2013-01-15 08:12:00,
2013-01-15 02:17:00,12.6,2.3,30.48,North,-999,-999.0,-999.0,63,0.00,,,0.00,meteohub,2013-01-15 08:17:00,
2013-01-15 02:22:00,12.4,2.1,30.48,North,-999,-999.0,-999.0,63,0.00,,,0.00,meteohub,2013-01-15 08:22:00,
2013-01-15 02:27:00,12.4,2.1,30.48,North,-999,-999.0,-999.0,63,0.00,,,0.00,meteohub,2013-01-15 08:27:00,
2013-01-15 02:32:00,12.0,2.1,30.48,North,-999,-999.0,-999.0,64,0.00,,,0.00,meteohub,2013-01-15 08:32:00,
2013-01-15 02:37:00,12.0,2.1,30.48,North,-999,-999.0,-999.0,64,0.00,,,0.00,meteohub,2013-01-15 08:37:00,
2013-01-15 02:42:00,11.8,2.3,30.48,North,-999,-999.0,-999.0,65,0.00,,,0.00,meteohub,2013-01-15 08:42:00,
2013-01-15 02:47:00,12.2,2.3,30.48,North,-999,-999.0,-999.0,64,0.00,,,0.00,meteohub,2013-01-15 08:47:00,
2013-01-15 02:52:00,12.6,3.0,30.48,North,-999,-999.0,-999.0,65,0.00,,,0.00,meteohub,2013-01-15 08:52:00,
2013-01-15 03:02:00,12.9,3.7,30.47,North,-999,-999.0,-999.0,66,0.00,,,0.00,meteohub,2013-01-15 09:02:00,
2013-01-15 03:07:00,12.9,3.7,30.47,North,-999,-999.0,-999.0,66,0.00,,,0.00,meteohub,2013-01-15 09:07:00,
2013-01-15 03:12:00,13.1,4.3,30.47,North,-999,-999.0,-999.0,67,0.00,,,0.00,meteohub,2013-01-15 09:12:00,
2013-01-15 03:17:00,12.9,3.7,30.47,North,-999,-999.0,-999.0,66,0.00,,,0.00,meteohub,2013-01-15 09:17:00,
2013-01-15 03:22:00,12.7,3.6,30.47,North,-999,-999.0,-999.0,66,0.00,,,0.00,meteohub,2013-01-15 09:22:00,
2013-01-15 03:27:00,12.7,3.6,30.47,North,-999,-999.0,-999.0,66,0.00,,,0.00,meteohub,2013-01-15 09:27:00,
2013-01-15 03:32:00,12.7,3.9,30.46,North,-999,-999.0,-999.0,67,0.00,,,0.00,meteohub,2013-01-15 09:32:00,
2013-01-15 03:37:00,12.6,3.7,30.46,North,-999,-999.0,-999.0,67,0.00,,,0.00,meteohub,2013-01-15 09:37:00,
2013-01-15 03:42:00,12.6,3.7,30.46,North,-999,-999.0,-999.0,67,0.00,,,0.00,meteohub,2013-01-15 09:42:00,
2013-01-15 03:47:00,12.6,3.7,30.46,North,-999,-999.0,-999.0,67,0.00,,,0.00,meteohub,2013-01-15 09:47:00,
2013-01-15 03:52:00,12.6,3.7,30.46,North,-999,-999.0,-999.0,67,0.00,,,0.00,meteohub,2013-01-15 09:52:00,
2013-01-15 03:57:00,12.6,3.7,30.46,North,-999,-999.0,-999.0,67,0.00,,,0.00,meteohub,2013-01-15 09:57:00,
2013-01-15 04:02:00,12.6,3.7,30.46,North,-999,-999.0,-999.0,67,0.00,,,0.00,meteohub,2013-01-15 10:02:00,
2013-01-15 04:07:00,12.4,3.6,30.46,North,-999,-999.0,-999.0,67,0.00,,,0.00,meteohub,2013-01-15 10:07:00,
2013-01-15 04:12:00,12.2,3.4,30.46,North,-999,-999.0,-999.0,67,0.00,,,0.00,meteohub,2013-01-15 10:12:00,
2013-01-15 04:17:00,12.4,3.9,30.45,North,-999,-999.0,-999.0,68,0.00,,,0.00,meteohub,2013-01-15 10:17:00,
2013-01-15 04:22:00,12.4,3.9,30.45,North,-999,-999.0,-999.0,68,0.00,,,0.00,meteohub,2013-01-15 10:22:00,
2013-01-15 04:27:00,12.2,3.7,30.45,North,-999,-999.0,-999.0,68,0.00,,,0.00,meteohub,2013-01-15 10:27:00,
2013-01-15 04:32:00,12.0,3.7,30.45,North,-999,-999.0,-999.0,69,0.00,,,0.00,meteohub,2013-01-15 10:32:00,
2013-01-15 04:37:00,11.8,3.6,30.45,North,-999,-999.0,-999.0,69,0.00,,,0.00,meteohub,2013-01-15 10:37:00,
2013-01-15 04:47:00,11.8,3.9,30.45,North,-999,-999.0,-999.0,70,0.00,,,0.00,meteohub,2013-01-15 10:47:00,
2013-01-15 04:52:00,11.8,4.3,30.45,North,-999,-999.0,-999.0,71,0.00,,,0.00,meteohub,2013-01-15 10:52:00,
2013-01-15 04:57:00,11.8,4.3,30.45,North,-999,-999.0,-999.0,71,0.00,,,0.00,meteohub,2013-01-15 10:57:00,
2013-01-15 05:02:00,11.7,4.1,30.45,North,-999,-999.0,-999.0,71,0.00,,,0.00,meteohub,2013-01-15 11:02:00,
2013-01-15 05:07:00,11.7,4.1,30.45,North,-999,-999.0,-999.0,71,0.00,,,0.00,meteohub,2013-01-15 11:07:00,
2013-01-15 05:12:00,11.8,4.3,30.44,North,-999,-999.0,-999.0,71,0.00,,,0.00,meteohub,2013-01-15 11:12:00,
2013-01-15 05:17:00,11.8,4.3,30.44,North,-999,-999.0,-999.0,71,0.00,,,0.00,meteohub,2013-01-15 11:17:00,
2013-01-15 05:22:00,11.8,4.3,30.44,North,-999,-999.0,-999.0,71,0.00,,,0.00,meteohub,2013-01-15 11:22:00,
2013-01-15 05:27:00,12.0,4.5,30.45,North,-999,-999.0,-999.0,71,0.00,,,0.00,meteohub,2013-01-15 11:27:00,
2013-01-15 05:32:00,12.0,4.5,30.44,North,-999,-999.0,-999.0,71,0.00,,,0.00,meteohub,2013-01-15 11:32:00,
2013-01-15 05:37:00,11.8,4.3,30.44,North,-999,-999.0,-999.0,71,0.00,,,0.00,meteohub,2013-01-15 11:37:00,
2013-01-15 05:42:00,11.8,4.3,30.44,North,-999,-999.0,-999.0,71,0.00,,,0.00,meteohub,2013-01-15 11:42:00,
2013-01-15 05:47:00,11.7,4.1,30.44,SW,225,0.0,0.0,71,0.00,,,0.00,meteohub,2013-01-15 11:47:00,
2013-01-15 05:52:00,11.5,3.9,30.44,North,-999,-999.0,0.0,71,0.00,,,0.00,meteohub,2013-01-15 11:52:00,
2013-01-15 05:57:00,11.5,3.9,30.44,North,-999,-999.0,0.0,71,0.00,,,0.00,meteohub,2013-01-15 11:57:00,
2013-01-15 06:02:00,11.3,3.7,30.44,North,-999,-999.0,-999.0,71,0.00,,,0.00,meteohub,2013-01-15 12:02:00,
2013-01-15 06:07:00,10.9,3.4,30.44,North,-999,-999.0,-999.0,71,0.00,,,0.00,meteohub,2013-01-15 12:07:00,
2013-01-15 06:12:00,10.8,3.2,30.44,North,-999,-999.0,-999.0,71,0.00,,,0.00,meteohub,2013-01-15 12:12:00,
2013-01-15 06:22:00,10.4,2.8,30.45,North,-999,-999.0,-999.0,71,0.00,,,0.00,meteohub,2013-01-15 12:22:00,
2013-01-15 06:27:00,10.4,2.8,30.45,North,-999,-999.0,-999.0,71,0.00,,,0.00,meteohub,2013-01-15 12:27:00,
2013-01-15 06:32:00,10.2,1.4,30.45,North,-999,-999.0,-999.0,67,0.00,,,0.00,meteohub,2013-01-15 12:32:00,
2013-01-15 06:37:00,10.2,1.4,30.45,North,-999,-999.0,-999.0,67,0.00,,,0.00,meteohub,2013-01-15 12:37:00,
2013-01-15 06:42:00,10.2,1.4,30.45,SE,135,0.0,-999.0,67,0.00,,,0.00,meteohub,2013-01-15 12:42:00,
2013-01-15 06:47:00,10.4,3.2,30.45,SE,135,0.0,0.0,72,0.00,,,0.00,meteohub,2013-01-15 12:47:00,
2013-01-15 06:52:00,10.6,3.4,30.45,North,-999,-999.0,0.0,72,0.00,,,0.00,meteohub,2013-01-15 12:52:00,
2013-01-15 06:57:00,10.6,3.4,30.45,North,-999,-999.0,0.0,72,0.00,,,0.00,meteohub,2013-01-15 12:57:00,
2013-01-15 07:02:00,10.6,3.6,30.45,North,-999,-999.0,-999.0,73,0.00,,,0.00,meteohub,2013-01-15 13:02:00,
2013-01-15 07:07:00,10.6,3.6,30.45,North,-999,-999.0,-999.0,73,0.00,,,0.00,meteohub,2013-01-15 13:07:00,
2013-01-15 07:12:00,10.4,3.4,30.45,North,-999,-999.0,-999.0,73,0.00,,,0.00,meteohub,2013-01-15 13:12:00,
2013-01-15 07:17:00,10.2,2.1,30.45,North,-999,-999.0,-999.0,69,0.00,,,0.00,meteohub,2013-01-15 13:17:00,
2013-01-15 07:22:00,10.4,3.4,30.45,North,-999,-999.0,-999.0,73,0.00,,,0.00,meteohub,2013-01-15 13:22:00,
2013-01-15 07:27:00,10.4,3.4,30.45,North,-999,-999.0,-999.0,73,0.00,,,0.00,meteohub,2013-01-15 13:27:00,
2013-01-15 07:32:00,10.6,3.6,30.45,North,-999,-999.0,-999.0,73,0.00,,,0.00,meteohub,2013-01-15 13:32:00,
2013-01-15 07:37:00,10.8,4.1,30.45,North,-999,-999.0,-999.0,74,0.00,,,0.00,meteohub,2013-01-15 13:37:00,
2013-01-15 07:42:00,10.8,4.1,30.46,North,-999,-999.0,-999.0,74,0.00,,,0.00,meteohub,2013-01-15 13:42:00,
2013-01-15 07:52:00,11.5,4.8,30.46,SSE,158,0.0,-999.0,74,0.00,,,0.00,meteohub,2013-01-15 13:52:00,
2013-01-15 07:57:00,11.7,5.0,30.46,SSE,158,0.0,0.0,74,0.00,,,0.00,meteohub,2013-01-15 13:57:00,
2013-01-15 08:02:00,11.8,5.5,30.46,North,-999,-999.0,0.0,75,0.00,,,0.00,meteohub,2013-01-15 14:02:00,
2013-01-15 08:07:00,12.4,5.7,30.46,North,-999,-999.0,0.0,74,0.00,,,0.00,meteohub,2013-01-15 14:07:00,
2013-01-15 08:12:00,13.1,6.4,30.46,North,-999,-999.0,-999.0,74,0.00,,,0.00,meteohub,2013-01-15 14:12:00,
2013-01-15 08:17:00,13.6,7.0,30.47,North,-999,-999.0,-999.0,74,0.00,,,0.00,meteohub,2013-01-15 14:17:00,
2013-01-15 08:22:00,14.2,7.2,30.47,North,-999,-999.0,-999.0,73,0.00,,,0.00,meteohub,2013-01-15 14:22:00,
2013-01-15 08:27:00,14.9,7.5,30.47,North,-999,-999.0,-999.0,72,0.00,,,0.00,meteohub,2013-01-15 14:27:00,
2013-01-15 08:37:00,16.0,7.7,30.46,North,-999,-999.0,-999.0,69,0.00,,,0.00,meteohub,2013-01-15 14:37:00,
2013-01-15 08:42:00,16.7,7.7,30.46,North,-999,-999.0,-999.0,67,0.00,,,0.00,meteohub,2013-01-15 14:42:00,
2013-01-15 08:47:00,17.2,7.9,30.46,North,-999,-999.0,-999.0,66,0.00,,,0.00,meteohub,2013-01-15 14:47:00,
2013-01-15 08:52:00,18.1,7.7,30.45,North,-999,-999.0,-999.0,63,0.00,,,0.00,meteohub,2013-01-15 14:52:00,
2013-01-15 08:57:00,19.2,8.4,30.45,North,-999,-999.0,-999.0,62,0.00,,,0.00,meteohub,2013-01-15 14:57:00,
2013-01-15 09:02:00,19.0,7.5,30.45,North,-999,-999.0,-999.0,60,0.00,,,0.00,meteohub,2013-01-15 15:02:00,
2013-01-15 09:07:00,18.9,7.0,30.45,North,-999,-999.0,-999.0,59,0.00,,,0.00,meteohub,2013-01-15 15:07:00,
2013-01-15 09:12:00,19.9,9.3,30.45,North,-999,-999.0,-999.0,63,0.00,,,0.00,meteohub,2013-01-15 15:12:00,
2013-01-15 09:17:00,21.6,10.2,30.45,North,-999,-999.0,-999.0,61,0.00,,,0.00,meteohub,2013-01-15 15:17:00,
2013-01-15 09:27:00,23.0,9.3,30.45,North,-999,-999.0,-999.0,55,0.00,,,0.00,meteohub,2013-01-15 15:27:00,
2013-01-15 09:32:00,23.7,9.5,30.45,North,-999,-999.0,-999.0,54,0.00,,,0.00,meteohub,2013-01-15 15:32:00,
2013-01-15 09:37:00,23.9,9.3,30.45,North,-999,-999.0,-999.0,53,0.00,,,0.00,meteohub,2013-01-15 15:37:00,
2013-01-15 09:42:00,24.1,9.0,30.45,North,-999,-999.0,-999.0,52,0.00,,,0.00,meteohub,2013-01-15 15:42:00,
2013-01-15 09:47:00,24.1,9.0,30.45,North,-999,-999.0,-999.0,52,0.00,,,0.00,meteohub,2013-01-15 15:47:00,
2013-01-15 09:52:00,24.8,9.3,30.44,North,-999,-999.0,-999.0,51,0.00,,,0.00,meteohub,2013-01-15 15:52:00,
2013-01-15 10:02:00,24.3,8.8,30.44,North,-999,-999.0,-999.0,51,0.00,,,0.00,meteohub,2013-01-15 16:02:00,
2013-01-15 10:07:00,25.5,9.5,30.43,North,-999,-999.0,-999.0,50,0.00,,,0.00,meteohub,2013-01-15 16:07:00,
2013-01-15 10:12:00,26.8,9.7,30.43,North,-999,-999.0,-999.0,48,0.00,,,0.00,meteohub,2013-01-15 16:12:00,
2013-01-15 10:17:00,26.6,8.6,30.43,North,-999,-999.0,-999.0,46,0.00,,,0.00,meteohub,2013-01-15 16:17:00,
2013-01-15 10:22:00,26.8,8.8,30.43,North,-999,-999.0,-999.0,46,0.00,,,0.00,meteohub,2013-01-15 16:22:00,
2013-01-15 10:27:00,27.5,9.0,30.43,North,-999,-999.0,-999.0,45,0.00,,,0.00,meteohub,2013-01-15 16:27:00,
2013-01-15 10:32:00,27.3,8.2,30.42,North,-999,-999.0,-999.0,44,0.00,,,0.00,meteohub,2013-01-15 16:32:00,
2013-01-15 10:37:00,27.1,8.1,30.42,North,-999,-999.0,-999.0,44,0.00,,,0.00,meteohub,2013-01-15 16:37:00,
2013-01-15 10:42:00,26.6,7.7,30.42,North,-999,-999.0,-999.0,44,0.00,,,0.00,meteohub,2013-01-15 16:42:00,
2013-01-15 10:47:00,27.0,7.9,30.41,North,-999,-999.0,-999.0,44,0.00,,,0.00,meteohub,2013-01-15 16:47:00,
2013-01-15 10:52:00,27.5,7.9,30.41,North,-999,-999.0,-999.0,43,0.00,,,0.00,meteohub,2013-01-15 16:52:00,
2013-01-15 10:57:00,28.4,10.2,30.40,North,-999,-999.0,-999.0,46,0.00,,,0.00,meteohub,2013-01-15 16:57:00,
2013-01-15 11:02:00,28.0,7.9,30.40,North,-999,-999.0,-999.0,42,0.00,,,0.00,meteohub,2013-01-15 17:02:00,
2013-01-15 11:07:00,28.0,7.9,30.39,North,-999,-999.0,-999.0,42,0.00,,,0.00,meteohub,2013-01-15 17:07:00,
2013-01-15 11:12:00,27.5,6.8,30.39,North,-999,-999.0,-999.0,41,0.00,,,0.00,meteohub,2013-01-15 17:12:00,
2013-01-15 11:17:00,28.4,10.2,30.38,North,-999,-999.0,-999.0,46,0.00,,,0.00,meteohub,2013-01-15 17:17:00,
2013-01-15 11:22:00,29.7,11.5,30.38,North,-999,-999.0,-999.0,46,0.00,,,0.00,meteohub,2013-01-15 17:22:00,
2013-01-15 11:27:00,30.4,11.1,30.36,North,-999,-999.0,-999.0,44,0.00,,,0.00,meteohub,2013-01-15 17:27:00,
2013-01-15 11:32:00,30.0,10.8,30.35,North,-999,-999.0,-999.0,44,0.00,,,0.00,meteohub,2013-01-15 17:32:00,
2013-01-15 11:37:00,30.4,10.6,30.35,North,-999,-999.0,-999.0,43,0.00,,,0.00,meteohub,2013-01-15 17:37:00,
2013-01-15 11:42:00,30.4,10.0,30.35,North,-999,-999.0,-999.0,42,0.00,,,0.00,meteohub,2013-01-15 17:42:00,
2013-01-15 11:47:00,30.9,10.0,30.35,WSW,248,0.0,-999.0,41,0.00,,,0.00,meteohub,2013-01-15 17:47:00,
2013-01-15 11:52:00,31.1,10.8,30.35,South,180,0.0,0.0,42,0.00,,,0.00,meteohub,2013-01-15 17:52:00,
2013-01-15 11:57:00,30.6,10.2,30.35,North,-999,-999.0,0.0,42,0.00,,,0.00,meteohub,2013-01-15 17:57:00,
2013-01-15 12:02:00,30.2,9.3,30.35,North,-999,-999.0,0.0,41,0.00,,,0.00,meteohub,2013-01-15 18:02:00,
2013-01-15 12:07:00,30.0,9.7,30.35,North,-999,-999.0,-999.0,42,0.00,,,0.00,meteohub,2013-01-15 18:07:00,
2013-01-15 12:12:00,29.7,9.3,30.35,North,-999,-999.0,-999.0,42,0.00,,,0.00,meteohub,2013-01-15 18:12:00,
2013-01-15 12:17:00,29.8,10.0,30.36,North,-999,-999.0,-999.0,43,0.00,,,0.00,meteohub,2013-01-15 18:17:00,
2013-01-15 12:22:00,30.4,10.0,30.36,North,-999,-999.0,-999.0,42,0.00,,,0.00,meteohub,2013-01-15 18:22:00,
2013-01-15 12:27:00,30.6,10.2,30.35,North,-999,-999.0,-999.0,42,0.00,,,0.00,meteohub,2013-01-15 18:27:00,
2013-01-15 12:32:00,30.2,9.9,30.36,North,-999,-999.0,-999.0,42,0.00,,,0.00,meteohub,2013-01-15 18:32:00,
2013-01-15 12:37:00,30.2,9.9,30.35,South,180,0.0,-999.0,42,0.00,,,0.00,meteohub,2013-01-15 18:37:00,
2013-01-15 12:42:00,31.1,11.3,30.35,North,-999,-999.0,0.0,43,0.00,,,0.00,meteohub,2013-01-15 18:42:00,
2013-01-15 12:47:00,31.3,10.8,30.34,North,-999,-999.0,0.0,42,0.00,,,0.00,meteohub,2013-01-15 18:47:00,
2013-01-15 12:52:00,32.0,10.4,30.34,North,-999,-999.0,0.0,40,0.00,,,0.00,meteohub,2013-01-15 18:52:00,
2013-01-15 12:57:00,31.8,10.8,30.34,North,-999,-999.0,-999.0,41,0.00,,,0.00,meteohub,2013-01-15 18:57:00,
2013-01-15 13:02:00,32.0,10.4,30.33,North,-999,-999.0,-999.0,40,0.00,,,0.00,meteohub,2013-01-15 19:02:00,
2013-01-15 13:07:00,32.5,9.1,30.32,North,-999,-999.0,-999.0,37,0.00,,,0.00,meteohub,2013-01-15 19:07:00,
2013-01-15 13:12:00,32.4,7.7,30.32,South,180,0.0,-999.0,35,0.00,,,0.00,meteohub,2013-01-15 19:12:00,
2013-01-15 13:17:00,32.0,6.8,30.32,South,180,0.0,0.0,34,0.00,,,0.00,meteohub,2013-01-15 19:17:00,
2013-01-15 13:22:00,32.2,8.2,30.32,North,-999,-999.0,0.0,36,0.00,,,0.00,meteohub,2013-01-15 19:22:00,
2013-01-15 13:27:00,32.4,6.4,30.31,North,-999,-999.0,0.0,33,0.00,,,0.00,meteohub,2013-01-15 19:27:00,
2013-01-15 13:32:00,32.4,7.2,30.31,North,-999,-999.0,-999.0,34,0.00,,,0.00,meteohub,2013-01-15 19:32:00,
2013-01-15 13:37:00,32.9,7.0,30.30,North,-999,-999.0,-999.0,33,0.00,,,0.00,meteohub,2013-01-15 19:37:00,
2013-01-15 13:42:00,32.9,6.3,30.30,North,-999,-999.0,-999.0,32,0.00,,,0.00,meteohub,2013-01-15 19:42:00,
2013-01-15 13:47:00,32.9,5.5,30.30,North,-999,-999.0,-999.0,31,0.00,,,0.00,meteohub,2013-01-15 19:47:00,
2013-01-15 13:52:00,33.3,6.6,30.30,North,-999,-999.0,-999.0,32,0.00,,,0.00,meteohub,2013-01-15 19:52:00,
2013-01-15 13:57:00,33.3,4.5,30.30,North,-999,-999.0,-999.0,29,0.00,,,0.00,meteohub,2013-01-15 19:57:00,
2013-01-15 14:02:00,33.3,3.7,30.30,West,270,0.0,-999.0,28,0.00,,,0.00,meteohub,2013-01-15 20:02:00,
2013-01-15 14:07:00,33.3,2.8,30.29,West,270,0.0,0.0,27,0.00,,,0.00,meteohub,2013-01-15 20:07:00,
2013-01-15 14:12:00,33.8,2.5,30.29,North,-999,-999.0,0.0,26,0.00,,,0.00,meteohub,2013-01-15 20:12:00,
2013-01-15 14:22:00,33.3,1.2,30.30,North,-999,-999.0,-999.0,25,0.00,,,0.00,meteohub,2013-01-15 20:22:00,
2013-01-15 14:27:00,32.9,0.0,30.29,North,-999,-999.0,-999.0,24,0.00,,,0.00,meteohub,2013-01-15 20:27:00,
2013-01-15 14:32:00,32.2,1.2,30.29,North,-999,-999.0,-999.0,26,0.00,,,0.00,meteohub,2013-01-15 20:32:00,
2013-01-15 14:37:00,32.5,2.3,30.29,North,-999,-999.0,-999.0,27,0.00,,,0.00,meteohub,2013-01-15 20:37:00,
2013-01-15 14:42:00,32.2,1.2,30.29,South,180,0.0,-999.0,26,0.00,,,0.00,meteohub,2013-01-15 20:42:00,
2013-01-15 14:47:00,31.8,2.5,30.29,North,-999,-999.0,0.0,28,0.00,,,0.00,meteohub,2013-01-15 20:47:00,
2013-01-15 14:52:00,32.7,4.6,30.29,South,180,0.0,0.0,30,0.00,,,0.00,meteohub,2013-01-15 20:52:00,
2013-01-15 14:57:00,32.9,3.4,30.29,North,-999,-999.0,0.0,28,0.00,,,0.00,meteohub,2013-01-15 20:57:00,
2013-01-15 15:02:00,31.8,3.2,30.29,North,-999,-999.0,0.0,29,0.00,,,0.00,meteohub,2013-01-15 21:02:00,
2013-01-15 15:07:00,31.1,3.9,30.28,North,-999,-999.0,0.0,31,0.00,,,0.00,meteohub,2013-01-15 21:07:00,
2013-01-15 15:12:00,31.1,4.6,30.29,North,-999,-999.0,-999.0,32,0.00,,,0.00,meteohub,2013-01-15 21:12:00,
2013-01-15 15:17:00,31.3,4.8,30.28,North,-999,-999.0,-999.0,32,0.00,,,0.00,meteohub,2013-01-15 21:17:00,
2013-01-15 15:22:00,31.8,5.4,30.28,North,-999,-999.0,-999.0,32,0.00,,,0.00,meteohub,2013-01-15 21:22:00,
2013-01-15 15:27:00,30.9,3.7,30.29,North,-999,-999.0,-999.0,31,0.00,,,0.00,meteohub,2013-01-15 21:27:00,
2013-01-15 15:32:00,31.5,4.3,30.29,North,-999,-999.0,-999.0,31,0.00,,,0.00,meteohub,2013-01-15 21:32:00,
2013-01-15 15:37:00,31.5,4.3,30.29,North,-999,-999.0,-999.0,31,0.00,,,0.00,meteohub,2013-01-15 21:37:00,
2013-01-15 15:42:00,30.7,3.0,30.28,North,-999,-999.0,-999.0,30,0.00,,,0.00,meteohub,2013-01-15 21:42:00,
2013-01-15 15:47:00,30.0,3.7,30.29,North,-999,-999.0,-999.0,32,0.00,,,0.00,meteohub,2013-01-15 21:47:00,
2013-01-15 15:52:00,29.8,4.3,30.29,North,-999,-999.0,-999.0,33,0.00,,,0.00,meteohub,2013-01-15 21:52:00,
2013-01-15 15:57:00,29.1,4.3,30.29,North,-999,-999.0,-999.0,34,0.00,,,0.00,meteohub,2013-01-15 21:57:00,
2013-01-15 16:02:00,28.9,5.4,30.29,North,-999,-999.0,-999.0,36,0.00,,,0.00,meteohub,2013-01-15 22:02:00,
2013-01-15 16:07:00,28.6,5.5,30.30,North,-999,-999.0,-999.0,37,0.00,,,0.00,meteohub,2013-01-15 22:07:00,
2013-01-15 16:12:00,28.6,6.3,30.30,North,-999,-999.0,-999.0,38,0.00,,,0.00,meteohub,2013-01-15 22:12:00,
2013-01-15 16:17:00,28.2,3.4,30.29,North,-999,-999.0,-999.0,34,0.00,,,0.00,meteohub,2013-01-15 22:17:00,
2013-01-15 16:22:00,27.9,3.7,30.30,North,-999,-999.0,-999.0,35,0.00,,,0.00,meteohub,2013-01-15 22:22:00,
2013-01-15 16:27:00,27.7,3.6,30.29,North,-999,-999.0,-999.0,35,0.00,,,0.00,meteohub,2013-01-15 22:27:00,
2013-01-15 16:32:00,27.3,3.9,30.30,North,-999,-999.0,-999.0,36,0.00,,,0.00,meteohub,2013-01-15 22:32:00,
2013-01-15 16:37:00,27.1,3.7,30.30,North,-999,-999.0,-999.0,36,0.00,,,0.00,meteohub,2013-01-15 22:37:00,
2013-01-15 16:42:00,27.0,4.6,30.29,North,-999,-999.0,-999.0,38,0.00,,,0.00,meteohub,2013-01-15 22:42:00,
2013-01-15 16:47:00,26.8,4.6,30.29,North,-999,-999.0,-999.0,38,0.00,,,0.00,meteohub,2013-01-15 22:47:00,
2013-01-15 16:57:00,26.4,4.8,30.29,North,-999,-999.0,-999.0,39,0.00,,,0.00,meteohub,2013-01-15 22:57:00,
2013-01-15 17:02:00,26.4,4.8,30.29,North,-999,-999.0,-999.0,39,0.00,,,0.00,meteohub,2013-01-15 23:02:00,
2013-01-15 17:07:00,26.2,4.6,30.28,North,-999,-999.0,-999.0,39,0.00,,,0.00,meteohub,2013-01-15 23:07:00,
2013-01-15 17:12:00,26.1,4.5,30.28,North,-999,-999.0,-999.0,39,0.00,,,0.00,meteohub,2013-01-15 23:12:00,
2013-01-15 17:17:00,25.9,5.4,30.28,North,-999,-999.0,-999.0,41,0.00,,,0.00,meteohub,2013-01-15 23:17:00,
2013-01-15 17:22:00,25.7,5.2,30.28,North,-999,-999.0,-999.0,41,0.00,,,0.00,meteohub,2013-01-15 23:22:00,
2013-01-15 17:27:00,25.7,5.7,30.29,North,-999,-999.0,-999.0,42,0.00,,,0.00,meteohub,2013-01-15 23:27:00,
2013-01-15 17:32:00,25.5,5.5,30.29,North,-999,-999.0,-999.0,42,0.00,,,0.00,meteohub,2013-01-15 23:32:00,
2013-01-15 17:37:00,25.3,5.9,30.29,North,-999,-999.0,-999.0,43,0.00,,,0.00,meteohub,2013-01-15 23:37:00,
2013-01-15 17:42:00,25.3,5.9,30.29,SW,225,0.0,-999.0,43,0.00,,,0.00,meteohub,2013-01-15 23:42:00,
2013-01-15 17:47:00,25.2,5.7,30.29,WSW,248,0.0,0.0,43,0.00,,,0.00,meteohub,2013-01-15 23:47:00,
2013-01-15 17:52:00,25.0,6.1,30.29,SW,225,0.0,0.0,44,0.00,,,0.00,meteohub,2013-01-15 23:52:00,
2013-01-15 17:57:00,24.8,5.9,30.29,SW,225,0.0,0.0,44,0.00,,,0.00,meteohub,2013-01-15 23:57:00,
2013-01-15 18:02:00,24.6,6.8,30.28,SW,225,0.0,0.0,46,0.00,,,0.00,meteohub,2013-01-16 00:02:00,
2013-01-15 18:07:00,24.6,7.3,30.29,WSW,248,0.0,0.0,47,0.00,,,0.00,meteohub,2013-01-16 00:07:00,
2013-01-15 18:12:00,24.6,7.3,30.28,North,-999,-999.0,0.0,47,0.00,,,0.00,meteohub,2013-01-16 00:12:00,
2013-01-15 18:17:00,24.4,7.5,30.28,South,180,0.0,0.0,48,0.00,,,0.00,meteohub,2013-01-16 00:17:00,
2013-01-15 18:22:00,24.4,8.1,30.28,South,180,0.0,0.0,49,0.00,,,0.00,meteohub,2013-01-16 00:22:00,
2013-01-15 18:27:00,24.3,7.9,30.28,South,180,0.0,0.0,49,0.00,,,0.00,meteohub,2013-01-16 00:27:00,
2013-01-15 18:32:00,24.1,8.1,30.27,North,-999,-999.0,0.0,50,0.00,,,0.00,meteohub,2013-01-16 00:32:00,
2013-01-15 18:37:00,24.1,8.1,30.27,North,-999,-999.0,0.0,50,0.00,,,0.00,meteohub,2013-01-16 00:37:00,
2013-01-15 18:42:00,23.9,7.9,30.27,North,-999,-999.0,0.0,50,0.00,,,0.00,meteohub,2013-01-16 00:42:00,
2013-01-15 18:47:00,23.9,7.9,30.27,North,-999,-999.0,-999.0,50,0.00,,,0.00,meteohub,2013-01-16 00:47:00,
2013-01-15 18:52:00,23.7,8.2,30.26,North,-999,-999.0,-999.0,51,0.00,,,0.00,meteohub,2013-01-16 00:52:00,
2013-01-15 18:57:00,23.7,8.2,30.26,North,-999,-999.0,-999.0,51,0.00,,,0.00,meteohub,2013-01-16 00:57:00,
2013-01-15 19:02:00,23.7,8.2,30.27,North,-999,-999.0,-999.0,51,0.00,,,0.00,meteohub,2013-01-16 01:02:00,
2013-01-15 19:07:00,23.4,7.9,30.26,SW,225,0.0,0.0,51,0.00,,,0.00,meteohub,2013-01-16 01:07:00,
2013-01-15 19:12:00,23.2,7.7,30.26,North,-999,-999.0,0.0,51,0.00,,,0.00,meteohub,2013-01-16 01:12:00,
2013-01-15 19:17:00,23.2,8.2,30.25,North,-999,-999.0,0.0,52,0.00,,,0.00,meteohub,2013-01-16 01:17:00,
2013-01-15 19:22:00,23.2,8.2,30.25,North,-999,-999.0,0.0,52,0.00,,,0.00,meteohub,2013-01-16 01:22:00,
2013-01-15 19:27:00,23.0,8.1,30.25,North,-999,-999.0,-999.0,52,0.00,,,0.00,meteohub,2013-01-16 01:27:00,
2013-01-15 19:32:00,22.8,8.2,30.24,North,-999,-999.0,-999.0,53,0.00,,,0.00,meteohub,2013-01-16 01:32:00,
2013-01-15 19:37:00,22.8,8.6,30.24,SW,225,0.0,0.0,54,0.00,,,0.00,meteohub,2013-01-16 01:37:00,
2013-01-15 19:42:00,22.6,8.4,30.24,North,-999,-999.0,0.0,54,0.00,,,0.00,meteohub,2013-01-16 01:42:00,
2013-01-15 19:47:00,22.5,8.2,30.24,North,-999,-999.0,0.0,54,0.00,,,0.00,meteohub,2013-01-16 01:47:00,
2013-01-15 19:52:00,22.3,8.2,30.23,SW,225,0.0,0.0,54,0.00,,,0.00,meteohub,2013-01-16 01:52:00,
2013-01-15 19:57:00,22.1,8.4,30.23,North,-999,-999.0,0.0,55,0.00,,,0.00,meteohub,2013-01-16 01:57:00,
2013-01-15 20:02:00,21.9,8.2,30.23,North,-999,-999.0,0.0,55,0.00,,,0.00,meteohub,2013-01-16 02:02:00,
2013-01-15 20:07:00,21.7,8.1,30.23,North,-999,-999.0,-999.0,55,0.00,,,0.00,meteohub,2013-01-16 02:07:00,
2013-01-15 20:12:00,21.6,8.2,30.22,SW,225,0.0,-999.0,56,0.00,,,0.00,meteohub,2013-01-16 02:12:00,
2013-01-15 20:17:00,21.6,8.2,30.22,North,-999,-999.0,0.0,56,0.00,,,0.00,meteohub,2013-01-16 02:17:00,
2013-01-15 20:22:00,21.4,8.1,30.22,North,-999,-999.0,0.0,56,0.00,,,0.00,meteohub,2013-01-16 02:22:00,
2013-01-15 20:27:00,21.2,8.4,30.22,North,-999,-999.0,0.0,57,0.00,,,0.00,meteohub,2013-01-16 02:27:00,
2013-01-15 20:32:00,21.0,8.6,30.22,SW,225,0.0,-999.0,58,0.00,,,0.00,meteohub,2013-01-16 02:32:00,
2013-01-15 20:37:00,21.0,8.6,30.22,WSW,248,0.0,0.0,58,0.00,,,0.00,meteohub,2013-01-16 02:37:00,
2013-01-15 20:42:00,20.8,8.8,30.21,SW,225,0.0,0.0,59,0.00,,,0.00,meteohub,2013-01-16 02:42:00,
2013-01-15 20:47:00,20.7,8.6,30.21,South,180,0.0,0.0,59,0.00,,,0.00,meteohub,2013-01-16 02:47:00,
2013-01-15 20:52:00,20.7,8.6,30.21,SW,225,0.0,0.0,59,0.00,,,0.00,meteohub,2013-01-16 02:52:00,
2013-01-15 20:57:00,20.5,8.8,30.20,North,-999,-999.0,0.0,60,0.00,,,0.00,meteohub,2013-01-16 02:57:00,
2013-01-15 21:02:00,20.3,8.6,30.20,North,-999,-999.0,0.0,60,0.00,,,0.00,meteohub,2013-01-16 03:02:00,
2013-01-15 21:07:00,20.3,9.0,30.20,North,-999,-999.0,0.0,61,0.00,,,0.00,meteohub,2013-01-16 03:07:00,
2013-01-15 21:12:00,20.3,9.0,30.19,North,-999,-999.0,-999.0,61,0.00,,,0.00,meteohub,2013-01-16 03:12:00,
2013-01-15 21:17:00,20.3,8.6,30.19,North,-999,-999.0,-999.0,60,0.00,,,0.00,meteohub,2013-01-16 03:17:00,
2013-01-15 21:22:00,19.9,8.2,30.18,WSW,248,0.0,0.0,60,0.00,,,0.00,meteohub,2013-01-16 03:22:00,
2013-01-15 21:27:00,19.9,8.6,30.19,North,-999,-999.0,0.0,61,0.00,,,0.00,meteohub,2013-01-16 03:27:00,
2013-01-15 21:32:00,19.9,8.6,30.19,North,-999,-999.0,0.0,61,0.00,,,0.00,meteohub,2013-01-16 03:32:00,
2013-01-15 21:37:00,19.9,8.6,30.18,SW,225,0.0,0.0,61,0.00,,,0.00,meteohub,2013-01-16 03:37:00,
2013-01-15 21:42:00,19.9,8.6,30.19,North,-999,-999.0,0.0,61,0.00,,,0.00,meteohub,2013-01-16 03:42:00,
2013-01-15 21:47:00,19.8,8.8,30.19,North,-999,-999.0,0.0,62,0.00,,,0.00,meteohub,2013-01-16 03:47:00,
2013-01-15 21:52:00,19.6,8.6,30.19,SW,225,0.0,-999.0,62,0.00,,,0.00,meteohub,2013-01-16 03:52:00,
2013-01-15 21:57:00,19.6,8.6,30.19,SW,225,0.0,0.0,62,0.00,,,0.00,meteohub,2013-01-16 03:57:00,
2013-01-15 22:02:00,19.4,8.6,30.18,WSW,248,0.0,0.0,62,0.00,,,0.00,meteohub,2013-01-16 04:02:00,
2013-01-15 22:07:00,19.4,8.6,30.18,North,-999,-999.0,0.0,62,0.00,,,0.00,meteohub,2013-01-16 04:07:00,
2013-01-15 22:12:00,19.4,8.6,30.17,North,-999,-999.0,0.0,62,0.00,,,0.00,meteohub,2013-01-16 04:12:00,
2013-01-15 22:17:00,19.0,7.2,30.17,North,-999,-999.0,0.0,59,0.00,,,0.00,meteohub,2013-01-16 04:17:00,
2013-01-15 22:22:00,19.0,7.2,30.17,North,-999,-999.0,-999.0,59,0.00,,,0.00,meteohub,2013-01-16 04:22:00,
2013-01-15 22:27:00,18.9,7.0,30.18,North,-999,-999.0,-999.0,59,0.00,,,0.00,meteohub,2013-01-16 04:27:00,
2013-01-15 22:32:00,18.9,7.0,30.17,WSW,248,0.0,-999.0,59,0.00,,,0.00,meteohub,2013-01-16 04:32:00,
2013-01-15 22:42:00,18.7,7.2,30.17,North,-999,-999.0,0.0,60,0.00,,,0.00,meteohub,2013-01-16 04:42:00,
2013-01-15 22:47:00,18.5,7.0,30.17,North,-999,-999.0,0.0,60,0.00,,,0.00,meteohub,2013-01-16 04:47:00,
2013-01-15 22:52:00,18.5,7.0,30.17,North,-999,-999.0,-999.0,60,0.00,,,0.00,meteohub,2013-01-16 04:52:00,
2013-01-15 22:57:00,18.5,7.0,30.16,North,-999,-999.0,-999.0,60,0.00,,,0.00,meteohub,2013-01-16 04:57:00,
2013-01-15 23:02:00,18.5,7.0,30.16,North,-999,-999.0,-999.0,60,0.00,,,0.00,meteohub,2013-01-16 05:02:00,
2013-01-15 23:07:00,18.5,7.0,30.16,North,-999,-999.0,-999.0,60,0.00,,,0.00,meteohub,2013-01-16 05:07:00,
2013-01-15 23:17:00,18.5,7.0,30.15,North,-999,-999.0,-999.0,60,0.00,,,0.00,meteohub,2013-01-16 05:17:00,
2013-01-15 23:22:00,18.5,7.0,30.15,North,-999,-999.0,-999.0,60,0.00,,,0.00,meteohub,2013-01-16 05:22:00,
2013-01-15 23:27:00,18.5,7.0,30.15,North,-999,-999.0,-999.0,60,0.00,,,0.00,meteohub,2013-01-16 05:27:00,
2013-01-15 23:32:00,18.3,6.8,30.15,North,-999,-999.0,-999.0,60,0.00,,,0.00,meteohub,2013-01-16 05:32:00,
2013-01-15 23:37:00,18.3,6.8,30.14,North,-999,-999.0,-999.0,60,0.00,,,0.00,meteohub,2013-01-16 05:37:00,
2013-01-15 23:42:00,18.3,6.8,30.14,North,-999,-999.0,-999.0,60,0.00,,,0.00,meteohub,2013-01-16 05:42:00,
2013-01-15 23:47:00,18.1,6.6,30.14,North,-999,-999.0,-999.0,60,0.00,,,0.00,meteohub,2013-01-16 05:47:00,
2013-01-15 23:52:00,18.1,6.6,30.13,North,-999,-999.0,-999.0,60,0.00,,,0.00,meteohub,2013-01-16 05:52:00,
2013-01-15 23:57:00,18.1,7.0,30.13,North,-999,-999.0,-999.0,61,0.00,,,0.00,meteohub,2013-01-16 05:57:00,